Suederoog — ZDHC8 — position and weather

sailwx.info

Track history (hours):
 
Tides and Currents Weather Stations Pressure Air Temp Water Temp Dewpoint Dewpoint Depression Visibility Wind Speed Wind Dir Waves Ship Positions

Suederoog

Last reported at 2015-Apr-20 00:32 UTC. Time now 2015-Apr-20 00:52 UTC.
Position N 60°25' E 026°55'.

Length 161 m; draft 8.4 m.

Type: Cargo ship. MMSI: 236300000.

Date/timePositionNaut miles runAvg speedWind from/ knotsBaromVisibWave heightAir tempDewpointWater temp
2015-Apr-20 00:32N 60°25' E 026°55'0 0.0
2015-Apr-19 23:32N 60°25' E 026°55'0 0.0
2015-Apr-19 22:32N 60°25' E 026°55'0 0.0
2015-Apr-19 21:32N 60°25' E 026°55'0 0.0
2015-Apr-19 20:32N 60°25' E 026°55'0 0.0
2015-Apr-19 19:32N 60°25' E 026°55'0 0.0
2015-Apr-19 18:32N 60°25' E 026°55'0 0.0
2015-Apr-19 17:32N 60°25' E 026°55'0 0.0
2015-Apr-19 16:32N 60°25' E 026°55'0 0.0
2015-Apr-19 15:32N 60°25' E 026°55'0 0.0
2015-Apr-19 14:32N 60°25' E 026°55'0 0.0
2015-Apr-19 13:32N 60°25' E 026°55'0 0.0
2015-Apr-19 12:32N 60°25' E 026°55'0 0.0
2015-Apr-19 11:32N 60°25' E 026°55'0 0.0
2015-Apr-19 10:32N 60°25' E 026°55'0 0.0
2015-Apr-19 09:32N 60°25' E 026°55'0 0.0
2015-Apr-19 08:32N 60°25' E 026°55'0 0.0
2015-Apr-19 07:32N 60°25' E 026°55'0 0.0
2015-Apr-19 06:32N 60°25' E 026°55'0 0.0
2015-Apr-19 05:32N 60°25' E 026°55'0 0.0
2015-Apr-19 04:32N 60°25' E 026°55'0 0.0
2015-Apr-19 03:32N 60°25' E 026°55'0 0.0
2015-Apr-19 02:29N 60°25' E 026°55'0 0.0
2015-Apr-19 01:34N 60°25' E 026°55'8 7.6
2015-Apr-19 00:33N 60°22' E 026°41'1313.4
2015-Apr-18 23:34N 60°12' E 026°23'10 9.7
2015-Apr-18 22:33N 60°05' E 026°36'8511.4
2015-Apr-18 15:04N 60°02' E 029°27'1010.3
2015-Apr-18 14:07N 59°59' E 029°45'5 8.3
2015-Apr-18 13:28N 59°56' E 029°55'3 3.5
2015-Apr-18 12:33N 59°55' E 030°01'6 6.3
2015-Apr-18 11:33N 59°52' E 030°12'0 0.1
2015-Apr-18 10:33N 59°52' E 030°12'0 0.0
2015-Apr-18 09:33N 59°52' E 030°12'0 0.0
2015-Apr-18 08:33N 59°52' E 030°12'0 0.0
2015-Apr-18 07:33N 59°52' E 030°12'0 0.0
2015-Apr-18 06:33N 59°52' E 030°12'0 0.0
2015-Apr-18 05:33N 59°52' E 030°12'0 0.0
2015-Apr-18 04:33N 59°52' E 030°12'0 0.0
2015-Apr-18 03:33N 59°52' E 030°12'0 0.0
2015-Apr-18 02:33N 59°52' E 030°12'0 0.0
2015-Apr-18 01:33N 59°52' E 030°12'0 0.0
2015-Apr-18 00:33N 59°52' E 030°12'0 0.0
2015-Apr-17 23:33N 59°52' E 030°12'0 0.0
2015-Apr-17 22:33N 59°52' E 030°12'0 0.0
2015-Apr-17 21:33N 59°52' E 030°12'0 0.0
2015-Apr-17 20:33N 59°52' E 030°12'0 0.0
2015-Apr-17 19:33N 59°52' E 030°12'0 0.0
2015-Apr-17 18:33N 59°52' E 030°12'1 0.8
2015-Apr-17 17:32N 59°53' E 030°11'0 0.0
2015-Apr-17 16:32N 59°53' E 030°11'0 0.0
2015-Apr-17 15:32N 59°53' E 030°11'0 0.0
2015-Apr-17 14:32N 59°53' E 030°11'0 0.0
2015-Apr-17 13:32N 59°53' E 030°11'0 0.0
2015-Apr-17 12:32N 59°53' E 030°11'0 0.0
2015-Apr-17 11:32N 59°53' E 030°11'0 0.0
2015-Apr-17 10:33N 59°53' E 030°11'0 0.0
2015-Apr-17 09:33N 59°53' E 030°11'0 0.0
2015-Apr-17 08:33N 59°53' E 030°11'0 0.0
2015-Apr-17 07:31N 59°53' E 030°11'0 0.0
2015-Apr-17 06:31N 59°53' E 030°11'0 0.0
2015-Apr-17 05:28N 59°53' E 030°11'0 0.0
2015-Apr-17 04:31N 59°53' E 030°11'0 0.0
2015-Apr-17 03:31N 59°53' E 030°11'1 0.9
2015-Apr-17 02:33N 59°53' E 030°10'10 9.7
2015-Apr-17 01:33N 59°57' E 029°52'1110.9
2015-Apr-17 00:33N 60°01' E 029°32'64 7.9
2015-Apr-16 16:32N 60°04' E 027°25'9 8.3
2015-Apr-16 15:31N 59°60' E 027°10'7 7.7
2015-Apr-16 14:32N 59°58' E 026°55'8 8.3
2015-Apr-16 13:33N 59°60' E 026°39'10 8.4
2015-Apr-16 12:23N 59°57' E 026°20'5411.1
2015-Apr-16 07:33N 59°45' E 024°37'1211.5
2015-Apr-16 06:33N 59°42' E 024°14'1211.4
2015-Apr-16 05:31N 59°38' E 023°52'1111.0
2015-Apr-16 04:33N 59°35' E 023°33'1211.0
2015-Apr-16 03:27N 59°31' E 023°10'2310.8
2015-Apr-16 01:21N 59°22' E 022°29'910.9
2015-Apr-16 00:33N 59°17' E 022°15'32611.2
2015-Apr-14 19:33N 55°30' E 015°01'1211.8
2015-Apr-14 18:33N 55°25' E 014°43'1411.6
2015-Apr-14 17:22N 55°15' E 014°26'911.6
2015-Apr-14 16:33N 55°07' E 014°16'4711.4
2015-Apr-14 12:25N 54°48' E 013°01'1411.3
2015-Apr-14 11:10N 54°44' E 012°38'711.6
2015-Apr-14 10:33N 54°40' E 012°28'1111.0
2015-Apr-14 09:33N 54°32' E 012°15'1010.1
2015-Apr-14 08:33N 54°25' E 012°03'1211.8
2015-Apr-14 07:33N 54°26' E 011°43'1211.7
2015-Apr-14 06:33N 54°31' E 011°25'1111.2
2015-Apr-14 05:33N 54°35' E 011°07'2311.5
2015-Apr-14 03:33N 54°32' E 010°27'1110.9
2015-Apr-14 02:33N 54°25' E 010°13'4 4.0
2015-Apr-14 01:33N 54°22' E 010°08'4 4.2
2015-Apr-14 00:33N 54°21' E 010°01'7 6.9
2015-Apr-13 23:32N 54°22' E 009°49'15 7.3
2015-Apr-13 21:26N 54°11' E 009°30'7 5.0
2015-Apr-13 20:04N 54°08' E 009°20'4 8.6
2015-Apr-13 19:33N 54°03' E 009°19'8 7.7
2015-Apr-13 18:34N 53°56' E 009°13'4 3.9
2015-Apr-13 17:34N 53°54' E 009°09'3 2.7
2015-Apr-13 16:34N 53°53' E 009°13'1514.6
2015-Apr-13 15:34N 53°42' E 009°30'1413.7
2015-Apr-13 14:33N 53°33' E 009°48'5 4.5
2015-Apr-13 13:32N 53°32' E 009°55'0 0.0
2015-Apr-13 12:29N 53°32' E 009°55'0 0.0
2015-Apr-13 11:32N 53°32' E 009°55'0 0.0
2015-Apr-13 10:33N 53°32' E 009°55'0 0.0
2015-Apr-13 09:30N 53°32' E 009°55'0 0.0
2015-Apr-13 08:30N 53°32' E 009°55'0 0.0
2015-Apr-13 07:33N 53°32' E 009°55'0 0.0
2015-Apr-13 06:33N 53°32' E 009°55'0 0.0
2015-Apr-13 05:33N 53°32' E 009°55'1 1.1
2015-Apr-13 04:33N 53°32' E 009°56'1 0.5
2015-Apr-13 03:18N 53°32' E 009°57'0 0.0
2015-Apr-13 00:25N 53°32' E 009°57'0 0.0
2015-Apr-12 23:28N 53°32' E 009°57'0 0.0
2015-Apr-12 22:31N 53°32' E 009°57'0 0.0
2015-Apr-12 21:32N 53°32' E 009°57'0 0.0
2015-Apr-12 20:33N 53°32' E 009°57'0 0.0
2015-Apr-12 19:31N 53°32' E 009°57'0 0.0
2015-Apr-12 18:25N 53°32' E 009°57'0 0.0
2015-Apr-12 17:33N 53°32' E 009°57'0 0.0
2015-Apr-12 16:33N 53°32' E 009°57'0 0.0
2015-Apr-12 15:33N 53°32' E 009°57'0 0.0
2015-Apr-12 14:33N 53°32' E 009°57'6 6.3
2015-Apr-12 13:33N 53°33' E 009°47'1211.5
2015-Apr-12 12:31N 53°40' E 009°30'1313.7
2015-Apr-12 11:34N 53°51' E 009°18'6 5.9
2015-Apr-12 10:33N 53°54' E 009°09'3 3.4
2015-Apr-12 09:34N 53°56' E 009°13'6 5.8
2015-Apr-12 08:33N 54°01' E 009°18'7 6.9
2015-Apr-12 07:33N 54°08' E 009°20'3 2.9
2015-Apr-12 06:33N 54°10' E 009°24'6 5.9
2015-Apr-12 05:31N 54°12' E 009°33'5 4.7
2015-Apr-12 04:33N 54°16' E 009°38'5 5.2
2015-Apr-12 03:33N 54°20' E 009°44'6 5.6
2015-Apr-12 02:33N 54°21' E 009°53'5 5.1
2015-Apr-12 01:33N 54°22' E 010°01'4 4.2
2015-Apr-12 00:33N 54°22' E 010°09'1 1.3
2015-Apr-11 23:33N 54°22' E 010°11'2 1.8
2015-Apr-11 22:33N 54°24' E 010°12'6 6.4
2015-Apr-11 21:33N 54°30' E 010°17'5 5.0
2015-Apr-11 20:31N 54°33' E 010°25'0 0.0
2015-Apr-11 19:31N 54°33' E 010°25'0 0.1
2015-Apr-11 18:33N 54°33' E 010°25'9 8.8
2015-Apr-11 17:33N 54°34' E 010°40'1010.5
2015-Apr-11 16:33N 54°35' E 010°58'1110.6
2015-Apr-11 15:33N 54°35' E 011°16'1111.1
2015-Apr-11 14:33N 54°30' E 011°33'1111.1
2015-Apr-11 13:33N 54°26' E 011°51'1111.0
2015-Apr-11 12:33N 54°26' E 012°10'1110.8
2015-Apr-11 11:34N 54°36' E 012°17'1111.2
2015-Apr-11 10:33N 54°43' E 012°33'1111.4
2015-Apr-11 09:33N 54°48' E 012°51'1111.0
2015-Apr-11 08:31N 54°53' E 013°09'1213.0
2015-Apr-11 07:33N 54°57' E 013°29'1514.4
2015-Apr-11 06:33N 55°02' E 013°53'1110.7
2015-Apr-11 05:32N 55°08' E 014°08'1110.8
2015-Apr-11 04:30N 55°17' E 014°20'1011.0
2015-Apr-11 03:34N 55°25' E 014°32'1111.1
2015-Apr-11 02:33N 55°31' E 014°48'1111.2
2015-Apr-11 01:34N 55°37' E 015°05'1211.4
2015-Apr-11 00:30N 55°43' E 015°24'2211.4
2015-Apr-10 22:33N 55°54' E 015°58'  
Track history (hours):
 
Tides and Currents Weather Stations Pressure Air Temp Water Temp Dewpoint Dewpoint Depression Visibility Wind Speed Wind Dir Waves Ship Positions

Suederoog

Last reported at 2015-Apr-20 00:32 UTC. Time now 2015-Apr-20 00:52 UTC.
Position N 60°25' E 026°55'.

Length 161 m; draft 8.4 m.

Type: Cargo ship. MMSI: 236300000.

Date/timePositionNaut miles runAvg speedWind from/ knotsBaromVisibWave heightAir tempDewpointWater temp
2015-Apr-20 00:32N 60°25' E 026°55'0 0.0
2015-Apr-19 23:32N 60°25' E 026°55'0 0.0
2015-Apr-19 22:32N 60°25' E 026°55'0 0.0
2015-Apr-19 21:32N 60°25' E 026°55'0 0.0
2015-Apr-19 20:32N 60°25' E 026°55'0 0.0
2015-Apr-19 19:32N 60°25' E 026°55'0 0.0
2015-Apr-19 18:32N 60°25' E 026°55'0 0.0
2015-Apr-19 17:32N 60°25' E 026°55'0 0.0
2015-Apr-19 16:32N 60°25' E 026°55'0 0.0
2015-Apr-19 15:32N 60°25' E 026°55'0 0.0
2015-Apr-19 14:32N 60°25' E 026°55'0 0.0
2015-Apr-19 13:32N 60°25' E 026°55'0 0.0
2015-Apr-19 12:32N 60°25' E 026°55'0 0.0
2015-Apr-19 11:32N 60°25' E 026°55'0 0.0
2015-Apr-19 10:32N 60°25' E 026°55'0 0.0
2015-Apr-19 09:32N 60°25' E 026°55'0 0.0
2015-Apr-19 08:32N 60°25' E 026°55'0 0.0
2015-Apr-19 07:32N 60°25' E 026°55'0 0.0
2015-Apr-19 06:32N 60°25' E 026°55'0 0.0
2015-Apr-19 05:32N 60°25' E 026°55'0 0.0
2015-Apr-19 04:32N 60°25' E 026°55'0 0.0
2015-Apr-19 03:32N 60°25' E 026°55'0 0.0
2015-Apr-19 02:29N 60°25' E 026°55'0 0.0
2015-Apr-19 01:34N 60°25' E 026°55'8 7.6
2015-Apr-19 00:33N 60°22' E 026°41'1313.4
2015-Apr-18 23:34N 60°12' E 026°23'10 9.7
2015-Apr-18 22:33N 60°05' E 026°36'8511.4
2015-Apr-18 15:04N 60°02' E 029°27'1010.3
2015-Apr-18 14:07N 59°59' E 029°45'5 8.3
2015-Apr-18 13:28N 59°56' E 029°55'3 3.5
2015-Apr-18 12:33N 59°55' E 030°01'6 6.3
2015-Apr-18 11:33N 59°52' E 030°12'0 0.1
2015-Apr-18 10:33N 59°52' E 030°12'0 0.0
2015-Apr-18 09:33N 59°52' E 030°12'0 0.0
2015-Apr-18 08:33N 59°52' E 030°12'0 0.0
2015-Apr-18 07:33N 59°52' E 030°12'0 0.0
2015-Apr-18 06:33N 59°52' E 030°12'0 0.0
2015-Apr-18 05:33N 59°52' E 030°12'0 0.0
2015-Apr-18 04:33N 59°52' E 030°12'0 0.0
2015-Apr-18 03:33N 59°52' E 030°12'0 0.0
2015-Apr-18 02:33N 59°52' E 030°12'0 0.0
2015-Apr-18 01:33N 59°52' E 030°12'0 0.0
2015-Apr-18 00:33N 59°52' E 030°12'0 0.0
2015-Apr-17 23:33N 59°52' E 030°12'0 0.0
2015-Apr-17 22:33N 59°52' E 030°12'0 0.0
2015-Apr-17 21:33N 59°52' E 030°12'0 0.0
2015-Apr-17 20:33N 59°52' E 030°12'0 0.0
2015-Apr-17 19:33N 59°52' E 030°12'0 0.0
2015-Apr-17 18:33N 59°52' E 030°12'1 0.8
2015-Apr-17 17:32N 59°53' E 030°11'0 0.0
2015-Apr-17 16:32N 59°53' E 030°11'0 0.0
2015-Apr-17 15:32N 59°53' E 030°11'0 0.0
2015-Apr-17 14:32N 59°53' E 030°11'0 0.0
2015-Apr-17 13:32N 59°53' E 030°11'0 0.0
2015-Apr-17 12:32N 59°53' E 030°11'0 0.0
2015-Apr-17 11:32N 59°53' E 030°11'0 0.0
2015-Apr-17 10:33N 59°53' E 030°11'0 0.0
2015-Apr-17 09:33N 59°53' E 030°11'0 0.0
2015-Apr-17 08:33N 59°53' E 030°11'0 0.0
2015-Apr-17 07:31N 59°53' E 030°11'0 0.0
2015-Apr-17 06:31N 59°53' E 030°11'0 0.0
2015-Apr-17 05:28N 59°53' E 030°11'0 0.0
2015-Apr-17 04:31N 59°53' E 030°11'0 0.0
2015-Apr-17 03:31N 59°53' E 030°11'1 0.9
2015-Apr-17 02:33N 59°53' E 030°10'10 9.7
2015-Apr-17 01:33N 59°57' E 029°52'1110.9
2015-Apr-17 00:33N 60°01' E 029°32'64 7.9
2015-Apr-16 16:32N 60°04' E 027°25'9 8.3
2015-Apr-16 15:31N 59°60' E 027°10'7 7.7
2015-Apr-16 14:32N 59°58' E 026°55'8 8.3
2015-Apr-16 13:33N 59°60' E 026°39'10 8.4
2015-Apr-16 12:23N 59°57' E 026°20'5411.1
2015-Apr-16 07:33N 59°45' E 024°37'1211.5
2015-Apr-16 06:33N 59°42' E 024°14'1211.4
2015-Apr-16 05:31N 59°38' E 023°52'1111.0
2015-Apr-16 04:33N 59°35' E 023°33'1211.0
2015-Apr-16 03:27N 59°31' E 023°10'2310.8
2015-Apr-16 01:21N 59°22' E 022°29'910.9
2015-Apr-16 00:33N 59°17' E 022°15'32611.2
2015-Apr-14 19:33N 55°30' E 015°01'1211.8
2015-Apr-14 18:33N 55°25' E 014°43'1411.6
2015-Apr-14 17:22N 55°15' E 014°26'911.6
2015-Apr-14 16:33N 55°07' E 014°16'4711.4
2015-Apr-14 12:25N 54°48' E 013°01'1411.3
2015-Apr-14 11:10N 54°44' E 012°38'711.6
2015-Apr-14 10:33N 54°40' E 012°28'1111.0
2015-Apr-14 09:33N 54°32' E 012°15'1010.1
2015-Apr-14 08:33N 54°25' E 012°03'1211.8
2015-Apr-14 07:33N 54°26' E 011°43'1211.7
2015-Apr-14 06:33N 54°31' E 011°25'1111.2
2015-Apr-14 05:33N 54°35' E 011°07'2311.5
2015-Apr-14 03:33N 54°32' E 010°27'1110.9
2015-Apr-14 02:33N 54°25' E 010°13'4 4.0
2015-Apr-14 01:33N 54°22' E 010°08'4 4.2
2015-Apr-14 00:33N 54°21' E 010°01'7 6.9
2015-Apr-13 23:32N 54°22' E 009°49'15 7.3
2015-Apr-13 21:26N 54°11' E 009°30'7 5.0
2015-Apr-13 20:04N 54°08' E 009°20'4 8.6
2015-Apr-13 19:33N 54°03' E 009°19'8 7.7
2015-Apr-13 18:34N 53°56' E 009°13'4 3.9
2015-Apr-13 17:34N 53°54' E 009°09'3 2.7
2015-Apr-13 16:34N 53°53' E 009°13'1514.6
2015-Apr-13 15:34N 53°42' E 009°30'1413.7
2015-Apr-13 14:33N 53°33' E 009°48'5 4.5
2015-Apr-13 13:32N 53°32' E 009°55'0 0.0
2015-Apr-13 12:29N 53°32' E 009°55'0 0.0
2015-Apr-13 11:32N 53°32' E 009°55'0 0.0
2015-Apr-13 10:33N 53°32' E 009°55'0 0.0
2015-Apr-13 09:30N 53°32' E 009°55'0 0.0
2015-Apr-13 08:30N 53°32' E 009°55'0 0.0
2015-Apr-13 07:33N 53°32' E 009°55'0 0.0
2015-Apr-13 06:33N 53°32' E 009°55'0 0.0
2015-Apr-13 05:33N 53°32' E 009°55'1 1.1
2015-Apr-13 04:33N 53°32' E 009°56'1 0.5
2015-Apr-13 03:18N 53°32' E 009°57'0 0.0
2015-Apr-13 00:25N 53°32' E 009°57'0 0.0
2015-Apr-12 23:28N 53°32' E 009°57'0 0.0
2015-Apr-12 22:31N 53°32' E 009°57'0 0.0
2015-Apr-12 21:32N 53°32' E 009°57'0 0.0
2015-Apr-12 20:33N 53°32' E 009°57'0 0.0
2015-Apr-12 19:31N 53°32' E 009°57'0 0.0
2015-Apr-12 18:25N 53°32' E 009°57'0 0.0
2015-Apr-12 17:33N 53°32' E 009°57'0 0.0
2015-Apr-12 16:33N 53°32' E 009°57'0 0.0
2015-Apr-12 15:33N 53°32' E 009°57'0 0.0
2015-Apr-12 14:33N 53°32' E 009°57'6 6.3
2015-Apr-12 13:33N 53°33' E 009°47'1211.5
2015-Apr-12 12:31N 53°40' E 009°30'1313.7
2015-Apr-12 11:34N 53°51' E 009°18'6 5.9
2015-Apr-12 10:33N 53°54' E 009°09'3 3.4
2015-Apr-12 09:34N 53°56' E 009°13'6 5.8
2015-Apr-12 08:33N 54°01' E 009°18'7 6.9
2015-Apr-12 07:33N 54°08' E 009°20'3 2.9
2015-Apr-12 06:33N 54°10' E 009°24'6 5.9
2015-Apr-12 05:31N 54°12' E 009°33'5 4.7
2015-Apr-12 04:33N 54°16' E 009°38'5 5.2
2015-Apr-12 03:33N 54°20' E 009°44'6 5.6
2015-Apr-12 02:33N 54°21' E 009°53'5 5.1
2015-Apr-12 01:33N 54°22' E 010°01'4 4.2
2015-Apr-12 00:33N 54°22' E 010°09'1 1.3
2015-Apr-11 23:33N 54°22' E 010°11'2 1.8
2015-Apr-11 22:33N 54°24' E 010°12'6 6.4
2015-Apr-11 21:33N 54°30' E 010°17'5 5.0
2015-Apr-11 20:31N 54°33' E 010°25'0 0.0
2015-Apr-11 19:31N 54°33' E 010°25'0 0.1
2015-Apr-11 18:33N 54°33' E 010°25'9 8.8
2015-Apr-11 17:33N 54°34' E 010°40'1010.5
2015-Apr-11 16:33N 54°35' E 010°58'1110.6
2015-Apr-11 15:33N 54°35' E 011°16'1111.1
2015-Apr-11 14:33N 54°30' E 011°33'1111.1
2015-Apr-11 13:33N 54°26' E 011°51'1111.0
2015-Apr-11 12:33N 54°26' E 012°10'1110.8
2015-Apr-11 11:34N 54°36' E 012°17'1111.2
2015-Apr-11 10:33N 54°43' E 012°33'1111.4
2015-Apr-11 09:33N 54°48' E 012°51'1111.0
2015-Apr-11 08:31N 54°53' E 013°09'1213.0
2015-Apr-11 07:33N 54°57' E 013°29'1514.4
2015-Apr-11 06:33N 55°02' E 013°53'1110.7
2015-Apr-11 05:32N 55°08' E 014°08'1110.8
2015-Apr-11 04:30N 55°17' E 014°20'1011.0
2015-Apr-11 03:34N 55°25' E 014°32'1111.1
2015-Apr-11 02:33N 55°31' E 014°48'1111.2
2015-Apr-11 01:34N 55°37' E 015°05'1211.4
2015-Apr-11 00:30N 55°43' E 015°24'2211.4
2015-Apr-10 22:33N 55°54' E 015°58'  

Dump ship's entire track history